createdAt,value
2019-03-02T11:07:35.361Z,8.78
2019-03-02T11:12:50.777Z,7.72
2019-03-02T11:18:06.066Z,7.53
2019-03-02T11:23:41.360Z,9.63
2019-03-02T11:29:07.635Z,8.65
2019-03-02T11:34:42.459Z,8.50
2019-03-02T11:40:08.438Z,8.88
2019-03-02T11:45:27.622Z,7.80
2019-03-02T11:50:56.631Z,7.20
2019-03-02T11:56:26.701Z,6.25
2019-03-02T12:01:45.448Z,6.15
2019-03-02T12:07:11.453Z,5.50
2019-03-02T12:12:34.673Z,5.45
2019-03-02T12:18:03.895Z,6.22
2019-03-02T12:23:25.939Z,6.62
2019-03-02T12:28:52.445Z,5.83
2019-03-02T12:34:18.677Z,6.87
2019-03-02T12:39:43.753Z,7.37
2019-03-02T12:45:25.185Z,7.83
2019-03-02T12:50:41.147Z,8.53
2019-03-02T12:56:02.983Z,8.65
2019-03-02T13:01:14.584Z,8.70
2019-03-02T13:06:24.767Z,9.70
2019-03-02T13:11:50.757Z,10.13
2019-03-02T13:17:33.136Z,12.18
2019-03-02T13:22:57.796Z,11.55
2019-03-02T13:28:37.093Z,10.58
2019-03-02T13:34:08.181Z,10.82
2019-03-02T13:39:23.149Z,10.80
2019-03-02T13:44:44.300Z,9.85
2019-03-02T13:49:57.550Z,11.57
2019-03-02T13:55:13.442Z,11.25
2019-03-02T14:00:34.860Z,10.78
2019-03-02T14:05:57.056Z,12.05
2019-03-02T14:11:23.170Z,12.00
2019-03-02T14:16:36.941Z,11.85
2019-03-02T14:21:56.729Z,12.00
2019-03-02T14:27:32.037Z,13.53
2019-03-02T14:32:48.443Z,12.30
2019-03-02T14:38:12.355Z,12.25
2019-03-02T14:43:35.957Z,13.53
2019-03-02T14:48:55.691Z,12.90
2019-03-02T14:54:24.756Z,16.25
2019-03-02T18:17:19.126Z,19.60
2019-03-02T18:22:24.232Z,16.87
